createdAt,value
2023-04-22T00:00:51.622Z,14.22
2023-04-22T00:01:51.837Z,14.12
2023-04-22T00:02:52.173Z,14.28
2023-04-22T00:03:52.439Z,13.77
2023-04-22T00:04:52.754Z,14.05
2023-04-22T00:05:52.865Z,14.12
2023-04-22T00:06:52.896Z,14.22
2023-04-22T00:07:53.065Z,14.32
2023-04-22T00:08:53.359Z,14.36
2023-04-22T00:09:53.544Z,14.05
2023-04-22T00:10:53.746Z,14.22
2023-04-22T00:11:53.938Z,14.32
2023-04-22T00:12:54.145Z,14.33
2023-04-22T00:13:54.388Z,14.39
2023-04-22T00:14:54.588Z,14.05
2023-04-22T00:15:54.838Z,14.08
2023-04-22T00:16:55.014Z,13.69
2023-04-22T00:17:55.270Z,13.15
2023-04-22T00:18:55.388Z,13.13
2023-04-22T00:19:55.563Z,12.39
2023-04-22T00:20:55.735Z,12.84
2023-04-22T00:21:55.973Z,12.94
2023-04-22T00:22:56.182Z,13.04
2023-04-22T00:23:56.299Z,13.19
2023-04-22T00:24:56.541Z,13.35
2023-04-22T00:25:56.757Z,13.53
2023-04-22T00:26:56.956Z,13.69
2023-04-22T00:27:57.056Z,13.59
2023-04-22T00:28:57.312Z,13.67
2023-04-22T00:29:57.527Z,13.59
2023-04-22T00:30:57.741Z,13.37
2023-04-22T00:31:58.022Z,13.65
2023-04-22T00:32:58.163Z,13.77
2023-04-22T00:33:58.325Z,13.77
2023-04-22T00:34:58.526Z,13.91
2023-04-22T00:35:58.741Z,13.96
2023-04-22T00:36:58.957Z,14.04
2023-04-22T00:37:59.177Z,13.93
2023-04-22T00:38:59.369Z,14.01
2023-04-22T00:39:59.578Z,14.11
2023-04-22T00:40:59.792Z,14.17
2023-04-22T00:41:59.970Z,14.01
2023-04-22T00:43:00.271Z,14.05
2023-04-22T00:44:00.506Z,14.01
2023-04-22T00:45:00.698Z,13.80
2023-04-22T00:46:00.924Z,13.84
2023-04-22T00:47:01.093Z,13.98
2023-04-22T00:48:01.277Z,13.90
2023-04-22T00:49:01.474Z,13.85
2023-04-22T00:50:01.731Z,13.93
2023-04-22T00:51:01.916Z,13.98
2023-04-22T00:52:02.142Z,14.08
2023-04-22T00:53:02.360Z,14.07
2023-04-22T00:54:02.571Z,14.00
2023-04-22T00:55:02.801Z,13.91
2023-04-22T00:56:02.948Z,13.88
2023-04-22T00:57:03.218Z,13.81
2023-04-22T00:58:03.382Z,13.81
2023-04-22T00:59:03.640Z,13.84
2023-04-22T01:00:03.888Z,13.88
2023-04-22T01:01:04.128Z,13.90
2023-04-22T01:02:04.452Z,13.96
2023-04-22T01:03:04.616Z,13.97
2023-04-22T01:04:04.837Z,13.93
2023-04-22T01:05:04.958Z,13.96
2023-04-22T01:06:05.160Z,13.93
2023-04-22T01:07:05.370Z,13.94
2023-04-22T01:08:05.579Z,13.98
2023-04-22T01:09:05.797Z,13.96
2023-04-22T01:10:06.017Z,13.97
2023-04-22T01:11:06.249Z,14.04
2023-04-22T01:12:06.492Z,14.04
2023-04-22T01:13:06.749Z,14.09
2023-04-22T01:14:06.979Z,14.09
2023-04-22T01:15:07.217Z,14.09
2023-04-22T01:16:07.453Z,14.12
2023-04-22T01:17:07.700Z,14.14
2023-04-22T01:18:07.918Z,14.07
2023-04-22T01:19:08.148Z,14.08
2023-04-22T01:20:08.357Z,14.11
2023-04-22T01:21:08.550Z,14.09
2023-04-22T01:22:08.769Z,13.96
2023-04-22T01:23:08.959Z,13.63
2023-04-22T01:24:09.182Z,13.65
2023-04-22T01:25:09.392Z,13.59
2023-04-22T01:26:09.641Z,13.25
2023-04-22T01:27:09.856Z,13.55
2023-04-22T01:28:10.066Z,13.63
2023-04-22T01:29:10.292Z,13.70
2023-04-22T01:30:10.499Z,13.70
2023-04-22T01:31:10.654Z,13.74
2023-04-22T01:32:10.652Z,13.67
2023-04-22T01:33:10.676Z,13.78
2023-04-22T01:34:10.581Z,13.83
2023-04-22T01:35:10.561Z,13.90
2023-04-22T01:36:12.826Z,13.90
2023-04-22T01:37:10.661Z,13.85
2023-04-22T01:38:10.700Z,13.59
2023-04-22T01:39:10.709Z,13.74
2023-04-22T01:40:10.736Z,13.80
2023-04-22T01:41:10.777Z,13.84
2023-04-22T01:42:10.791Z,13.80
2023-04-22T01:43:10.815Z,13.85
2023-04-22T01:44:10.842Z,13.90
2023-04-22T01:45:10.861Z,13.94
2023-04-22T01:46:10.965Z,13.97
2023-04-22T01:47:11.066Z,13.98
2023-04-22T01:48:11.369Z,13.97
2023-04-22T01:49:11.532Z,13.97
2023-04-22T01:50:11.721Z,14.01
2023-04-22T01:51:11.961Z,13.97
2023-04-22T01:52:12.193Z,13.53
2023-04-22T01:53:12.425Z,13.65
2023-04-22T01:54:12.635Z,13.66
2023-04-22T01:55:12.857Z,13.69
2023-04-22T01:56:13.078Z,13.57
2023-04-22T01:57:13.290Z,12.69
2023-04-22T01:58:13.489Z,11.96
2023-04-22T01:59:13.685Z,12.07
2023-04-22T02:00:13.899Z,12.35
2023-04-22T02:01:14.112Z,12.16
2023-04-22T02:02:14.389Z,12.25
2023-04-22T02:03:14.591Z,12.44
2023-04-22T02:04:14.695Z,12.53
2023-04-22T02:05:15.044Z,12.80
2023-04-22T02:06:15.167Z,12.88
2023-04-22T02:07:15.347Z,12.34
2023-04-22T02:08:15.518Z,12.28
2023-04-22T02:09:15.764Z,12.10
2023-04-22T02:10:16.020Z,12.48
2023-04-22T02:11:16.239Z,12.66
2023-04-22T02:12:16.428Z,12.76
2023-04-22T02:13:16.642Z,12.93
2023-04-22T02:14:16.894Z,13.05
2023-04-22T02:15:17.204Z,13.10
2023-04-22T02:16:17.478Z,13.15
2023-04-22T02:17:17.685Z,13.24
2023-04-22T02:18:17.902Z,13.31
2023-04-22T02:19:18.124Z,13.41
2023-04-22T02:20:18.425Z,13.49
2023-04-22T02:21:18.545Z,13.45
2023-04-22T02:22:18.833Z,13.43
2023-04-22T02:23:19.050Z,13.50
2023-04-22T02:24:19.278Z,13.55
2023-04-22T02:25:19.490Z,13.59
2023-04-22T02:26:19.652Z,13.35
2023-04-22T02:27:19.981Z,13.37
2023-04-22T02:28:20.105Z,13.24
2023-04-22T02:29:20.337Z,13.32
2023-04-22T02:30:20.598Z,13.37
2023-04-22T02:31:20.882Z,12.64
2023-04-22T02:32:21.074Z,12.64
2023-04-22T02:33:21.293Z,11.83
2023-04-22T02:34:21.471Z,11.93
2023-04-22T02:35:21.710Z,12.04
2023-04-22T02:36:21.958Z,11.87
2023-04-22T02:37:22.273Z,11.87
2023-04-22T02:38:22.502Z,11.73
2023-04-22T02:39:22.871Z,12.07
2023-04-22T02:40:22.963Z,12.07
2023-04-22T02:41:23.208Z,12.02
2023-04-22T02:42:23.522Z,12.11
2023-04-22T02:43:23.714Z,11.93
2023-04-22T02:44:23.869Z,11.72
2023-04-22T02:45:24.141Z,11.84
2023-04-22T02:46:24.449Z,12.08
2023-04-22T02:47:24.606Z,11.62
2023-04-22T02:48:24.843Z,11.34
2023-04-22T02:49:25.021Z,11.43
2023-04-22T02:50:25.288Z,11.46
2023-04-22T02:51:25.442Z,11.64
2023-04-22T02:52:25.690Z,11.75
2023-04-22T02:53:25.922Z,11.72
2023-04-22T02:54:26.057Z,11.37
2023-04-22T02:55:26.305Z,11.39
2023-04-22T02:56:26.581Z,11.79
2023-04-22T02:57:26.730Z,11.58
2023-04-22T02:58:27.035Z,11.73
2023-04-22T02:59:27.263Z,11.91
2023-04-22T03:00:27.412Z,11.51
2023-04-22T03:01:27.762Z,11.66
2023-04-22T03:02:28.039Z,11.77
2023-04-22T03:03:28.286Z,11.94
2023-04-22T03:04:28.377Z,12.05
2023-04-22T03:05:28.563Z,12.13
2023-04-22T03:06:28.807Z,11.96
2023-04-22T03:07:29.080Z,11.94
2023-04-22T03:08:29.265Z,11.89
2023-04-22T03:09:29.542Z,12.07
2023-04-22T03:10:29.800Z,12.08
2023-04-22T03:11:29.981Z,12.07
2023-04-22T03:12:30.254Z,12.24
2023-04-22T03:13:30.408Z,12.28
2023-04-22T03:14:30.654Z,11.61
2023-04-22T03:15:30.906Z,11.56
2023-04-22T03:16:31.097Z,11.59
2023-04-22T03:17:31.340Z,11.52
2023-04-22T03:18:31.467Z,11.43
2023-04-22T03:19:31.654Z,11.65
2023-04-22T03:20:31.904Z,11.68
2023-04-22T03:21:32.068Z,11.82
2023-04-22T03:22:32.334Z,12.04
2023-04-22T03:23:32.476Z,12.16
2023-04-22T03:24:32.732Z,11.93
2023-04-22T03:25:32.924Z,11.18
2023-04-22T03:26:33.117Z,11.31
2023-04-22T03:27:33.316Z,11.52
2023-04-22T03:28:33.519Z,11.48
2023-04-22T03:29:33.713Z,11.39
2023-04-22T03:30:33.981Z,11.64
2023-04-22T03:31:34.256Z,11.75
2023-04-22T03:32:34.439Z,11.94
2023-04-22T03:33:34.679Z,12.11
2023-04-22T03:34:37.072Z,12.07
2023-04-22T03:35:35.022Z,11.91
2023-04-22T03:36:35.069Z,12.04
2023-04-22T03:37:35.137Z,11.76
2023-04-22T03:38:35.200Z,11.79
2023-04-22T03:39:35.250Z,11.79
2023-04-22T03:40:35.312Z,11.79
2023-04-22T03:41:35.371Z,11.93
2023-04-22T03:42:35.474Z,12.13
2023-04-22T03:43:35.486Z,12.13
2023-04-22T03:44:35.546Z,12.28
2023-04-22T03:45:35.664Z,12.38
2023-04-22T03:46:35.656Z,12.31
2023-04-22T03:47:35.721Z,12.49
2023-04-22T03:48:35.787Z,12.55
2023-04-22T03:49:35.803Z,12.18
2023-04-22T03:50:35.853Z,12.29
2023-04-22T03:51:35.910Z,12.27
2023-04-22T03:52:35.949Z,11.14
2023-04-22T03:53:35.954Z,11.34
2023-04-22T03:54:35.959Z,10.89
2023-04-22T03:55:36.002Z,10.78
2023-04-22T03:56:36.048Z,11.03
2023-04-22T03:57:36.109Z,11.06
2023-04-22T03:58:36.193Z,11.20
2023-04-22T03:59:36.278Z,10.80
2023-04-22T04:00:36.376Z,11.17
2023-04-22T04:01:36.431Z,11.37
2023-04-22T04:02:36.687Z,10.51
2023-04-22T04:03:36.795Z,10.89
2023-04-22T04:04:37.160Z,11.06
2023-04-22T04:05:36.868Z,11.00
2023-04-22T04:06:36.836Z,10.89
2023-04-22T04:07:36.869Z,11.00
2023-04-22T04:08:36.955Z,10.89
2023-04-22T04:09:37.030Z,10.59
2023-04-22T04:10:37.128Z,9.97
2023-04-22T04:11:37.205Z,10.01
2023-04-22T04:12:37.248Z,10.27
2023-04-22T04:13:37.362Z,10.56
2023-04-22T04:14:37.565Z,10.53
2023-04-22T04:15:37.886Z,10.38
2023-04-22T04:16:38.039Z,10.18
2023-04-22T04:17:38.286Z,10.53
2023-04-22T04:18:38.487Z,10.56
2023-04-22T04:19:39.087Z,10.59
2023-04-22T04:20:38.835Z,10.72
2023-04-22T04:21:38.910Z,10.95
2023-04-22T04:22:38.970Z,11.20
2023-04-22T04:23:39.011Z,11.24
2023-04-22T04:24:39.168Z,10.86
2023-04-22T04:25:39.176Z,10.84
2023-04-22T04:26:39.238Z,10.96
2023-04-22T04:27:39.304Z,11.15
2023-04-22T04:28:39.355Z,11.20
2023-04-22T04:29:39.688Z,11.27
2023-04-22T04:30:39.426Z,11.35
2023-04-22T04:31:39.445Z,11.39
2023-04-22T04:32:39.462Z,11.28
2023-04-22T04:33:39.495Z,11.11
2023-04-22T04:34:39.578Z,11.03
2023-04-22T04:35:39.679Z,10.86
2023-04-22T04:36:39.817Z,10.76
2023-04-22T04:37:39.904Z,10.63
2023-04-22T04:38:40.035Z,10.49
2023-04-22T04:39:40.442Z,10.53
2023-04-22T04:40:40.258Z,10.58
2023-04-22T04:41:40.387Z,10.62
2023-04-22T04:42:40.509Z,10.69
2023-04-22T04:43:40.577Z,10.79
2023-04-22T04:44:40.656Z,10.69
2023-04-22T04:45:40.689Z,10.47
2023-04-22T04:46:40.877Z,10.30
2023-04-22T04:47:40.901Z,10.40
2023-04-22T04:48:40.977Z,10.41
2023-04-22T04:49:41.274Z,10.49
2023-04-22T04:50:41.183Z,10.47
2023-04-22T04:51:41.293Z,10.35
2023-04-22T04:52:41.381Z,10.27
2023-04-22T04:53:41.462Z,10.24
2023-04-22T04:54:41.529Z,10.25
2023-04-22T04:55:41.627Z,10.30
2023-04-22T04:56:41.702Z,10.33
2023-04-22T04:57:41.795Z,10.23
2023-04-22T04:58:41.894Z,10.27
2023-04-22T04:59:42.206Z,10.24
2023-04-22T05:00:42.119Z,10.43
2023-04-22T05:01:42.265Z,10.40
2023-04-22T05:02:42.503Z,10.40
2023-04-22T05:03:42.611Z,10.35
2023-04-22T05:04:42.678Z,10.45
2023-04-22T05:05:42.600Z,10.63
2023-04-22T05:06:42.703Z,10.34
2023-04-22T05:07:42.701Z,10.14
2023-04-22T05:08:42.749Z,10.34
2023-04-22T05:09:42.999Z,10.34
2023-04-22T05:10:42.897Z,10.17
2023-04-22T05:11:43.009Z,10.11
2023-04-22T05:12:43.084Z,10.20
2023-04-22T05:13:43.170Z,10.10
2023-04-22T05:14:43.263Z,10.21
2023-04-22T05:15:43.355Z,10.33
2023-04-22T05:16:43.564Z,10.44
2023-04-22T05:17:43.603Z,10.25
2023-04-22T05:18:43.612Z,10.11
2023-04-22T05:19:43.659Z,10.31
2023-04-22T05:20:43.737Z,10.45
2023-04-22T05:21:43.820Z,10.73
2023-04-22T05:22:43.906Z,10.78
2023-04-22T05:23:43.982Z,10.73
2023-04-22T05:24:44.052Z,10.35
2023-04-22T05:25:44.141Z,10.51
2023-04-22T05:26:44.209Z,10.35
2023-04-22T05:27:44.315Z,10.10
2023-04-22T05:28:44.504Z,10.24
2023-04-22T05:29:44.667Z,10.18
2023-04-22T05:30:44.929Z,10.16
2023-04-22T05:31:44.907Z,10.13
2023-04-22T05:32:44.933Z,10.21
2023-04-22T05:33:44.955Z,10.35
2023-04-22T05:34:44.990Z,10.14
2023-04-22T05:35:45.058Z,10.11
2023-04-22T05:36:45.133Z,10.07
2023-04-22T05:37:45.209Z,10.14
2023-04-22T05:38:45.298Z,10.01
2023-04-22T05:39:45.346Z,10.06
2023-04-22T05:40:45.433Z,10.00
2023-04-22T05:41:47.123Z,9.89
2023-04-22T05:42:45.557Z,9.92
2023-04-22T05:43:45.704Z,9.81
2023-04-22T05:44:45.689Z,9.75
2023-04-22T05:45:45.811Z,9.69
2023-04-22T05:46:45.815Z,9.76
2023-04-22T05:47:45.918Z,9.93
2023-04-22T05:48:45.951Z,9.92
2023-04-22T05:49:45.997Z,9.96
2023-04-22T05:50:46.063Z,10.07
2023-04-22T05:51:46.142Z,10.14
2023-04-22T05:52:46.194Z,10.06
2023-04-22T05:53:46.262Z,10.06
2023-04-22T05:54:46.327Z,10.11
2023-04-22T05:55:46.409Z,10.07
2023-04-22T05:56:46.483Z,10.11
2023-04-22T05:57:46.549Z,10.16
2023-04-22T05:58:46.616Z,10.14
2023-04-22T05:59:46.688Z,10.11
2023-04-22T06:00:46.733Z,10.16
2023-04-22T06:01:46.818Z,10.16
2023-04-22T06:02:47.021Z,10.18
2023-04-22T06:03:47.088Z,10.17
2023-04-22T06:04:47.294Z,10.13
2023-04-22T06:05:47.111Z,10.18
2023-04-22T06:06:47.120Z,10.38
2023-04-22T06:07:47.176Z,10.43
2023-04-22T06:08:47.316Z,10.51
2023-04-22T06:09:47.410Z,10.44
2023-04-22T06:10:47.531Z,10.41
2023-04-22T06:11:47.633Z,10.37
2023-04-22T06:12:47.765Z,10.35
2023-04-22T06:13:47.873Z,10.37
2023-04-22T06:14:47.968Z,10.47
2023-04-22T06:15:48.123Z,10.37
2023-04-22T06:16:48.156Z,10.27
2023-04-22T06:17:48.268Z,10.17
2023-04-22T06:18:48.289Z,10.35
2023-04-22T06:19:48.339Z,10.44
2023-04-22T06:20:48.418Z,10.66
2023-04-22T06:21:48.508Z,10.68
2023-04-22T06:22:48.590Z,10.75
2023-04-22T06:23:48.658Z,10.76
2023-04-22T06:24:48.746Z,11.04
2023-04-22T06:25:48.838Z,11.03
2023-04-22T06:26:48.910Z,10.96
2023-04-22T06:27:49.006Z,10.97
2023-04-22T06:28:49.085Z,11.04
2023-04-22T06:29:49.160Z,10.90
2023-04-22T06:30:49.243Z,11.18
2023-04-22T06:31:49.429Z,11.42
2023-04-22T06:32:49.393Z,11.51
2023-04-22T06:33:49.531Z,11.68
2023-04-22T06:34:49.693Z,11.68
2023-04-22T06:35:49.881Z,11.46
2023-04-22T06:36:50.042Z,11.72
2023-04-22T06:37:50.202Z,11.51
2023-04-22T06:38:50.185Z,11.58
2023-04-22T06:39:50.176Z,11.49
2023-04-22T06:40:50.181Z,11.59
2023-04-22T06:41:50.186Z,11.83
2023-04-22T06:42:50.180Z,11.77
2023-04-22T06:43:50.190Z,11.89
2023-04-22T06:44:50.196Z,11.93
2023-04-22T06:45:50.211Z,12.10
2023-04-22T06:46:50.296Z,12.13
2023-04-22T06:47:50.275Z,12.14
2023-04-22T06:48:50.263Z,12.36
2023-04-22T06:49:50.267Z,12.20
2023-04-22T06:50:50.277Z,12.23
2023-04-22T06:51:50.271Z,12.23
2023-04-22T06:52:50.283Z,12.20
2023-04-22T06:53:50.281Z,12.32
2023-04-22T06:54:50.289Z,12.23
2023-04-22T06:55:50.324Z,12.14
2023-04-22T06:56:50.284Z,11.98
2023-04-22T06:57:50.283Z,12.07
2023-04-22T06:58:50.281Z,12.18
2023-04-22T06:59:50.286Z,12.05
2023-04-22T07:00:50.288Z,12.23
2023-04-22T07:01:50.350Z,12.55
2023-04-22T07:02:50.435Z,12.66
2023-04-22T07:03:50.315Z,12.72
2023-04-22T07:04:50.265Z,12.77
2023-04-22T07:05:50.265Z,12.94
2023-04-22T07:06:50.256Z,13.10
2023-04-22T07:07:50.248Z,13.22
2023-04-22T07:08:50.223Z,13.29
2023-04-22T07:09:50.198Z,13.18
2023-04-22T07:10:50.177Z,13.15
2023-04-22T07:11:50.146Z,13.38
2023-04-22T07:12:50.122Z,13.42
2023-04-22T07:13:50.098Z,13.45
2023-04-22T07:14:50.066Z,13.56
2023-04-22T07:15:50.022Z,13.55
2023-04-22T07:16:50.038Z,13.74
2023-04-22T07:17:49.971Z,13.80
2023-04-22T07:18:49.936Z,14.02
2023-04-22T07:19:49.902Z,14.05
2023-04-22T07:20:49.883Z,14.14
2023-04-22T07:21:49.842Z,14.22
2023-04-22T07:22:49.808Z,14.33
2023-04-22T07:23:49.793Z,14.40
2023-04-22T07:24:49.761Z,14.24
2023-04-22T07:25:49.733Z,14.32
2023-04-22T07:26:49.703Z,14.32
2023-04-22T07:27:49.666Z,14.31
2023-04-22T07:28:49.652Z,14.40
2023-04-22T07:29:49.641Z,14.11
2023-04-22T07:30:49.612Z,14.26
2023-04-22T07:31:49.590Z,14.49
2023-04-22T07:32:49.561Z,14.63
2023-04-22T07:33:49.511Z,14.71
2023-04-22T07:34:49.467Z,14.77
2023-04-22T07:35:49.443Z,14.92
2023-04-22T07:36:49.391Z,14.97
2023-04-22T07:37:49.353Z,15.11
2023-04-22T07:38:49.339Z,15.21
2023-04-22T07:39:49.319Z,15.17
2023-04-22T07:40:49.289Z,15.18
2023-04-22T07:41:49.276Z,15.11
2023-04-22T07:42:49.228Z,15.32
2023-04-22T07:43:49.196Z,15.45
2023-04-22T07:44:49.272Z,15.26
2023-04-22T07:45:49.447Z,15.56
2023-04-22T07:46:49.717Z,15.47
2023-04-22T07:47:49.923Z,15.73
2023-04-22T07:48:50.153Z,15.80
2023-04-22T07:49:50.435Z,15.68
2023-04-22T07:50:50.519Z,15.67
2023-04-22T07:51:50.757Z,15.81
2023-04-22T07:52:50.975Z,15.90
2023-04-22T07:53:51.162Z,15.98
2023-04-22T07:54:51.249Z,15.83
2023-04-22T07:55:51.458Z,16.01
2023-04-22T07:56:51.617Z,16.19
2023-04-22T07:57:51.771Z,16.19
2023-04-22T07:58:51.912Z,16.29
2023-04-22T07:59:52.166Z,16.37
2023-04-22T08:00:52.383Z,16.40
2023-04-22T08:01:52.484Z,16.53
2023-04-22T08:02:52.828Z,16.67
2023-04-22T08:03:53.098Z,16.57
2023-04-22T08:04:53.221Z,16.50
2023-04-22T08:05:53.293Z,16.39
2023-04-22T08:06:53.436Z,16.36
2023-04-22T08:07:53.558Z,16.46
2023-04-22T08:08:53.728Z,16.42
2023-04-22T08:09:53.999Z,16.35
2023-04-22T08:10:54.087Z,16.12
2023-04-22T08:11:54.237Z,16.22
2023-04-22T08:12:54.446Z,16.42
2023-04-22T08:13:54.657Z,16.49
2023-04-22T08:14:54.884Z,16.54
2023-04-22T08:15:55.009Z,16.43
2023-04-22T08:16:55.185Z,16.52
2023-04-22T08:17:55.484Z,16.49
2023-04-22T08:18:55.508Z,16.66
2023-04-22T08:19:55.726Z,16.66
2023-04-22T08:20:55.910Z,16.72
2023-04-22T08:21:56.100Z,16.78
2023-04-22T08:22:56.280Z,16.67
2023-04-22T08:23:56.456Z,16.84
2023-04-22T08:24:56.612Z,16.94
2023-04-22T08:25:56.792Z,16.85
2023-04-22T08:26:56.986Z,16.72
2023-04-22T08:27:57.160Z,16.88
2023-04-22T08:28:57.340Z,16.89
2023-04-22T08:29:57.517Z,16.99
2023-04-22T08:30:57.761Z,16.81
2023-04-22T08:31:57.814Z,16.85
2023-04-22T08:32:58.136Z,16.77
2023-04-22T08:33:58.318Z,16.87
2023-04-22T08:35:04.353Z,16.82
2023-04-22T08:35:59.474Z,16.78
2023-04-22T08:36:58.416Z,16.75
2023-04-22T08:37:58.342Z,16.78
2023-04-22T08:38:58.287Z,16.80
2023-04-22T08:39:58.219Z,17.05
2023-04-22T08:40:58.149Z,16.99
2023-04-22T08:41:58.147Z,17.02
2023-04-22T08:42:58.021Z,17.01
2023-04-22T08:43:57.943Z,17.01
2023-04-22T08:44:57.855Z,17.13
2023-04-22T08:45:57.779Z,16.98
2023-04-22T08:46:57.782Z,17.29
2023-04-22T08:47:57.632Z,17.30
2023-04-22T08:48:57.504Z,17.23
2023-04-22T08:49:57.419Z,17.46
2023-04-22T08:50:57.473Z,17.49
2023-04-22T08:51:57.281Z,17.66
2023-04-22T08:52:57.258Z,17.82
2023-04-22T08:53:57.227Z,17.57
2023-04-22T08:54:57.157Z,17.63
2023-04-22T08:55:57.090Z,17.68
2023-04-22T08:56:57.027Z,17.82
2023-04-22T08:57:57.009Z,17.86
2023-04-22T08:58:56.951Z,17.95
2023-04-22T08:59:56.926Z,18.09
2023-04-22T09:00:56.898Z,18.20
2023-04-22T09:01:56.977Z,18.20
2023-04-22T09:02:56.965Z,18.13
2023-04-22T09:03:56.865Z,18.23
2023-04-22T09:04:56.719Z,18.36
2023-04-22T09:05:56.645Z,18.23
2023-04-22T09:06:56.626Z,18.13
2023-04-22T09:07:56.579Z,18.12
2023-04-22T09:08:56.514Z,18.26
2023-04-22T09:09:56.450Z,18.37
2023-04-22T09:10:56.440Z,18.41
2023-04-22T09:11:56.407Z,18.40
2023-04-22T09:12:56.409Z,18.55
2023-04-22T09:13:56.351Z,18.17
2023-04-22T09:14:56.357Z,18.57
2023-04-22T09:15:58.626Z,18.71
2023-04-22T09:16:56.196Z,18.78
2023-04-22T09:17:56.084Z,18.61
2023-04-22T09:18:55.987Z,18.60
2023-04-22T09:19:55.885Z,18.65
2023-04-22T09:20:55.794Z,18.68
2023-04-22T09:21:55.701Z,18.78
2023-04-22T09:22:55.605Z,18.74
2023-04-22T09:23:55.522Z,18.40
2023-04-22T09:24:55.444Z,18.64
2023-04-22T09:25:55.342Z,18.84
2023-04-22T09:26:55.254Z,18.94
2023-04-22T09:27:55.135Z,19.06
2023-04-22T09:28:55.045Z,19.12
2023-04-22T09:29:55.084Z,19.13
2023-04-22T09:30:54.824Z,19.17
2023-04-22T09:31:54.801Z,19.24
2023-04-22T09:32:54.689Z,19.29
2023-04-22T09:33:54.491Z,19.01
2023-04-22T09:34:54.386Z,18.92
2023-04-22T09:35:54.267Z,18.32
2023-04-22T09:36:54.162Z,18.62
2023-04-22T09:37:54.074Z,18.74
2023-04-22T09:38:53.956Z,18.96
2023-04-22T09:39:53.830Z,18.96
2023-04-22T09:40:53.712Z,18.76
2023-04-22T09:41:53.597Z,18.95
2023-04-22T09:42:53.479Z,18.82
2023-04-22T09:43:53.354Z,18.70
2023-04-22T09:44:53.240Z,18.94
2023-04-22T09:45:53.146Z,19.06
2023-04-22T09:46:53.025Z,19.12
2023-04-22T09:47:52.955Z,19.29
2023-04-22T09:48:52.800Z,19.44
2023-04-22T09:49:52.681Z,19.35
2023-04-22T09:50:52.588Z,19.54
2023-04-22T09:51:52.463Z,19.60
2023-04-22T09:52:52.343Z,19.42
2023-04-22T09:53:52.255Z,19.47
2023-04-22T09:54:52.194Z,19.62
2023-04-22T09:55:52.130Z,19.74
2023-04-22T09:56:52.092Z,19.84
2023-04-22T09:57:51.998Z,19.41
2023-04-22T09:58:51.929Z,19.72
2023-04-22T09:59:51.870Z,19.88
2023-04-22T10:00:51.818Z,19.92
2023-04-22T10:01:51.717Z,20.03
2023-04-22T10:02:51.687Z,19.89
2023-04-22T10:03:51.582Z,20.00
2023-04-22T10:04:51.549Z,20.09
2023-04-22T10:05:51.465Z,20.21
2023-04-22T10:06:51.403Z,20.40
2023-04-22T10:07:51.375Z,20.50
2023-04-22T10:08:51.236Z,20.33
2023-04-22T10:09:51.152Z,20.26
2023-04-22T10:10:51.046Z,20.26
2023-04-22T10:11:50.942Z,20.47
2023-04-22T10:12:50.840Z,20.27
2023-04-22T10:13:50.884Z,20.38
2023-04-22T10:14:50.954Z,20.45
2023-04-22T10:15:51.101Z,20.47
2023-04-22T10:16:51.234Z,20.51
2023-04-22T10:17:51.443Z,20.40
2023-04-22T10:18:51.606Z,20.33
2023-04-22T10:19:51.759Z,20.41
2023-04-22T10:20:51.869Z,20.30
2023-04-22T10:21:52.091Z,20.16
2023-04-22T10:22:52.209Z,20.06
2023-04-22T10:23:52.324Z,19.96
2023-04-22T10:24:52.551Z,20.28
2023-04-22T10:25:52.665Z,20.34
2023-04-22T10:26:54.300Z,20.45
2023-04-22T10:27:52.931Z,20.61
2023-04-22T10:28:52.843Z,20.61
2023-04-22T10:29:52.649Z,20.56
2023-04-22T10:30:52.618Z,20.69
2023-04-22T10:31:52.679Z,20.85
2023-04-22T10:32:52.823Z,20.76
2023-04-22T10:33:53.745Z,20.50
2023-04-22T10:34:52.801Z,20.68
2023-04-22T10:35:52.671Z,20.69
2023-04-22T10:36:52.531Z,20.86
2023-04-22T10:37:52.585Z,20.97
2023-04-22T10:38:52.699Z,20.99
2023-04-22T10:39:52.823Z,21.03
2023-04-22T10:40:53.176Z,21.19
2023-04-22T10:41:53.075Z,21.22
2023-04-22T10:42:53.186Z,21.20
2023-04-22T10:43:53.266Z,21.34
2023-04-22T10:44:53.465Z,21.47
2023-04-22T10:45:53.576Z,21.40
2023-04-22T10:46:53.708Z,21.34
2023-04-22T10:47:53.819Z,21.29
2023-04-22T10:48:53.869Z,21.34
2023-04-22T10:49:54.064Z,21.47
2023-04-22T10:50:54.144Z,21.52
2023-04-22T10:51:54.217Z,21.17
2023-04-22T10:52:54.326Z,21.20
2023-04-22T10:53:54.450Z,21.38
2023-04-22T10:54:54.569Z,21.47
2023-04-22T10:55:54.676Z,21.41
2023-04-22T10:56:58.146Z,21.51
2023-04-22T10:57:54.618Z,21.57
2023-04-22T10:58:54.470Z,21.52
2023-04-22T10:59:54.326Z,21.54
2023-04-22T11:00:54.529Z,21.49
2023-04-22T11:01:54.097Z,21.64
2023-04-22T11:02:53.992Z,21.71
2023-04-22T11:03:53.832Z,21.76
2023-04-22T11:04:53.607Z,21.55
2023-04-22T11:05:53.449Z,21.59
2023-04-22T11:06:53.311Z,21.74
2023-04-22T11:07:53.152Z,21.83
2023-04-22T11:08:53.016Z,21.72
2023-04-22T11:09:52.868Z,21.49
2023-04-22T11:10:52.726Z,21.74
2023-04-22T11:11:52.561Z,21.78
2023-04-22T11:12:52.641Z,21.83
2023-04-22T11:13:52.702Z,21.95
2023-04-22T11:14:52.858Z,21.79
2023-04-22T11:15:53.021Z,21.64
2023-04-22T11:16:53.187Z,21.66
2023-04-22T11:17:53.325Z,21.86
2023-04-22T11:18:53.468Z,21.92
2023-04-22T11:19:53.586Z,21.85
2023-04-22T11:20:53.770Z,21.81
2023-04-22T11:21:53.878Z,21.95
2023-04-22T11:22:53.971Z,21.92
2023-04-22T11:23:54.117Z,22.09
2023-04-22T11:24:54.237Z,22.10
2023-04-22T11:25:54.351Z,22.17
2023-04-22T11:26:54.533Z,22.17
2023-04-22T11:27:54.610Z,22.35
2023-04-22T11:28:54.711Z,22.16
2023-04-22T11:29:54.879Z,22.37
2023-04-22T11:30:55.008Z,22.44
2023-04-22T11:31:55.220Z,22.43
2023-04-22T11:32:55.317Z,22.50
2023-04-22T11:33:55.393Z,22.56
2023-04-22T11:34:55.482Z,22.55
2023-04-22T11:35:55.627Z,22.66
2023-04-22T11:36:55.667Z,22.58
2023-04-22T11:37:55.883Z,22.52
2023-04-22T11:38:56.003Z,22.66
2023-04-22T11:40:20.886Z,22.58
2023-04-22T11:40:56.876Z,22.66
2023-04-22T11:41:55.720Z,22.76
2023-04-22T11:42:55.564Z,22.86
2023-04-22T11:43:55.529Z,23.07
2023-04-22T11:44:55.326Z,23.18
2023-04-22T11:45:55.249Z,23.21
2023-04-22T11:46:55.022Z,23.28
2023-04-22T11:47:54.898Z,23.35
2023-04-22T11:48:54.637Z,23.54
2023-04-22T11:49:54.471Z,23.45
2023-04-22T11:50:54.284Z,23.47
2023-04-22T11:51:54.152Z,23.34
2023-04-22T11:52:53.941Z,23.49
2023-04-22T11:53:53.782Z,23.62
2023-04-22T11:54:53.593Z,23.62
2023-04-22T11:55:53.423Z,23.77
2023-04-22T11:56:53.250Z,23.59
2023-04-22T11:57:53.072Z,23.62
2023-04-22T11:58:52.896Z,23.59
2023-04-22T11:59:52.721Z,23.80
2023-04-22T12:00:52.564Z,23.76
2023-04-22T12:01:52.416Z,23.93
2023-04-22T12:02:52.278Z,23.87
2023-04-22T12:03:52.089Z,23.95
2023-04-22T12:04:51.857Z,24.13
2023-04-22T12:05:51.659Z,24.25
2023-04-22T12:06:51.465Z,24.17
2023-04-22T12:07:51.314Z,24.35
2023-04-22T12:08:51.166Z,24.34
2023-04-22T12:09:51.022Z,24.36
2023-04-22T12:10:50.867Z,24.55
2023-04-22T12:11:50.714Z,24.62
2023-04-22T12:12:50.557Z,24.79
2023-04-22T12:13:50.405Z,24.87
2023-04-22T12:14:50.228Z,24.75
2023-04-22T12:15:50.095Z,24.93
2023-04-22T12:16:49.986Z,25.10
2023-04-22T12:17:49.784Z,25.14
2023-04-22T12:18:49.612Z,25.11
2023-04-22T12:19:49.465Z,25.24
2023-04-22T12:20:49.316Z,25.30
2023-04-22T12:21:49.167Z,25.24
2023-04-22T12:22:49.011Z,25.35
2023-04-22T12:23:48.905Z,25.06
2023-04-22T12:24:48.718Z,25.17
2023-04-22T12:25:48.566Z,25.28
2023-04-22T12:26:48.410Z,25.37
2023-04-22T12:27:48.241Z,25.61
2023-04-22T12:28:48.278Z,25.59
2023-04-22T12:29:48.409Z,25.79
2023-04-22T12:30:48.620Z,25.76
2023-04-22T12:31:48.727Z,25.91
2023-04-22T12:32:48.850Z,25.97
2023-04-22T12:33:49.124Z,25.94
2023-04-22T12:34:49.097Z,26.01
2023-04-22T12:35:49.286Z,25.75
2023-04-22T12:36:49.332Z,26.08
2023-04-22T12:37:50.638Z,26.17
2023-04-22T12:38:49.346Z,26.05
2023-04-22T12:39:49.197Z,26.32
2023-04-22T12:40:49.028Z,26.39
2023-04-22T12:41:48.832Z,26.45
2023-04-22T12:42:48.653Z,26.58
2023-04-22T12:43:48.432Z,26.70
2023-04-22T12:44:48.237Z,26.70
2023-04-22T12:45:48.058Z,26.48
2023-04-22T12:46:47.873Z,26.70
2023-04-22T12:47:47.693Z,26.76
2023-04-22T12:48:47.484Z,26.89
2023-04-22T12:49:47.532Z,26.51
2023-04-22T12:50:47.111Z,26.89
2023-04-22T12:51:46.916Z,26.56
2023-04-22T12:52:46.722Z,27.03
2023-04-22T12:53:46.530Z,26.48
2023-04-22T12:54:46.352Z,26.53